Time;durP1;ratioP1;P1;durP2;ratioP2;P2;SDS_P1;SDS_P2;PMS_P1;PMS_P2;Temp;Humidity;BMP_temperature;BMP_pressure;BME280_temperature;BME280_humidity;BME280_pressure;Samples;Min_cycle;Max_cycle;Signal;HPM_P1;HPM_P2
2023/07/13 00:02:24;;;;;;;5.28;2.65;;;15.70;99.90;;;;;;4958078;28;90984;-32
2023/07/13 00:04:50;;;;;;;7.80;4.05;;;15.60;99.90;;;;;;4958001;28;90145;-37
2023/07/13 00:07:19;;;;;;;6.30;3.22;;;15.70;99.90;;;;;;4958292;28;90187;-38
2023/07/13 00:09:46;;;;;;;8.73;3.28;;;15.60;99.90;;;;;;4945570;28;88264;-34
2023/07/13 00:12:36;;;;;;;5.07;3.33;;;15.60;99.90;;;;;;4958437;28;90110;-33
2023/07/13 00:15:05;;;;;;;3.05;2.75;;;15.60;99.90;;;;;;4958364;28;90250;-33
2023/07/13 00:17:31;;;;;;;9.95;3.67;;;15.50;99.90;;;;;;4958157;28;90698;-40
2023/07/13 00:19:58;;;;;;;6.05;3.60;;;15.60;99.90;;;;;;4959498;28;88333;-33
2023/07/13 00:22:28;;;;;;;7.70;3.63;;;15.60;99.90;;;;;;4958076;28;90867;-37
2023/07/13 00:24:56;;;;;;;6.93;3.42;;;15.60;99.90;;;;;;4958681;28;89664;-34
2023/07/13 00:27:22;;;;;;;10.82;4.22;;;15.50;99.90;;;;;;4957188;28;91622;-36
2023/07/13 00:29:48;;;;;;;8.82;3.85;;;15.50;99.90;;;;;;4957548;28;89984;-36
2023/07/13 00:32:13;;;;;;;7.78;3.88;;;15.50;99.90;;;;;;4957571;28;90249;-33
2023/07/13 00:34:40;;;;;;;15.77;3.83;;;15.50;99.90;;;;;;4957702;28;90005;-34
2023/07/13 00:37:06;;;;;;;9.20;4.35;;;15.40;99.90;;;;;;4957292;28;89795;-35
2023/07/13 00:39:33;;;;;;;6.35;2.83;;;15.50;99.90;;;;;;4958808;28;88997;-49
2023/07/13 00:42:00;;;;;;;8.18;4.50;;;15.50;99.90;;;;;;4957236;28;91103;-34
2023/07/13 00:44:26;;;;;;;5.55;3.03;;;15.50;99.90;;;;;;4957546;28;89960;-41
2023/07/13 00:46:52;;;;;;;6.50;3.85;;;15.50;99.90;;;;;;4957082;28;90404;-37
2023/07/13 00:49:20;;;;;;;3.80;3.25;;;15.50;99.90;;;;;;4958084;28;90234;-35
2023/07/13 00:51:58;;;;;;;10.60;3.88;;;15.50;99.90;;;;;;4955921;28;90581;-33
2023/07/13 00:54:30;;;;;;;6.93;3.67;;;15.50;99.90;;;;;;4956865;28;89096;-41
2023/07/13 00:57:00;;;;;;;3.20;2.65;;;15.40;99.90;;;;;;4955924;28;91056;-37
2023/07/13 00:59:26;;;;;;;9.88;3.42;;;15.40;99.90;;;;;;4956813;28;89531;-32
2023/07/13 01:01:53;;;;;;;9.80;4.63;;;15.50;99.90;;;;;;4957579;28;90506;-36
2023/07/13 01:04:19;;;;;;;8.98;3.67;;;15.50;99.90;;;;;;4956844;28;89624;-36
2023/07/13 01:06:46;;;;;;;11.82;3.53;;;15.50;99.90;;;;;;4957619;28;89446;-36
2023/07/13 01:09:14;;;;;;;6.57;3.63;;;15.40;99.90;;;;;;4944471;28;88729;-43
2023/07/13 01:11:41;;;;;;;4.97;3.75;;;15.50;99.90;;;;;;4939807;28;89177;-37
2023/07/13 01:14:07;;;;;;;8.25;3.70;;;15.50;99.90;;;;;;4939185;28;89732;-39
2023/07/13 01:16:35;;;;;;;12.10;4.60;;;15.40;99.90;;;;;;4958691;28;89145;-38
2023/07/13 01:19:06;;;;;;;8.13;3.83;;;15.50;99.90;;;;;;4956885;28;90236;-33
2023/07/13 01:21:32;;;;;;;6.68;4.05;;;15.50;99.90;;;;;;4938983;28;91206;-37
2023/07/13 01:23:58;;;;;;;8.88;3.53;;;15.50;99.90;;;;;;4941769;28;90667;-34
2023/07/13 01:26:24;;;;;;;8.38;5.05;;;15.50;99.90;;;;;;4942446;28;89466;-38
2023/07/13 01:28:50;;;;;;;4.60;3.33;;;15.50;99.90;;;;;;4944252;28;90551;-35
2023/07/13 01:31:16;;;;;;;10.60;3.80;;;15.50;99.90;;;;;;4940511;28;90333;-34
2023/07/13 01:33:42;;;;;;;10.07;4.13;;;15.50;99.90;;;;;;4944113;28;89890;-40
2023/07/13 01:36:09;;;;;;;5.78;3.90;;;15.50;99.90;;;;;;4961923;28;89478;-38
2023/07/13 01:38:36;;;;;;;9.13;4.03;;;15.50;99.90;;;;;;4961045;28;89473;-33
2023/07/13 01:41:03;;;;;;;8.55;3.60;;;15.50;99.90;;;;;;4961562;28;90277;-32
2023/07/13 01:43:29;;;;;;;3.72;2.92;;;15.50;99.90;;;;;;4958702;28;90795;-35
2023/07/13 01:45:55;;;;;;;6.63;3.50;;;15.50;99.90;;;;;;4961782;28;90754;-33
2023/07/13 01:48:21;;;;;;;10.75;3.90;;;15.50;99.90;;;;;;4961023;28;89347;-39
2023/07/13 01:50:47;;;;;;;8.85;4.15;;;15.50;99.90;;;;;;4961728;28;90725;-32
2023/07/13 01:53:13;;;;;;;8.35;3.97;;;15.50;99.90;;;;;;4945475;28;90025;-36
2023/07/13 01:55:39;;;;;;;9.35;4.22;;;15.50;99.90;;;;;;4960989;28;89983;-37
2023/07/13 01:58:06;;;;;;;15.73;3.72;;;15.50;99.90;;;;;;4958958;28;90241;-33
2023/07/13 02:00:32;;;;;;;10.23;3.58;;;15.50;99.90;;;;;;4960774;28;90864;-35
2023/07/13 02:02:58;;;;;;;4.90;3.72;;;15.50;99.90;;;;;;4958651;28;90334;-41
2023/07/13 02:05:24;;;;;;;9.18;3.65;;;15.50;99.90;;;;;;4960709;28;89551;-35
2023/07/13 02:07:50;;;;;;;5.60;3.53;;;15.50;99.90;;;;;;4958084;28;90296;-34
2023/07/13 02:10:16;;;;;;;12.10;4.25;;;15.50;99.90;;;;;;4941768;28;90162;-35
2023/07/13 02:12:42;;;;;;;7.75;3.60;;;15.50;99.90;;;;;;4942364;28;90100;-36
2023/07/13 02:15:08;;;;;;;12.35;4.25;;;15.50;99.90;;;;;;4942122;28;89636;-40
2023/07/13 02:17:35;;;;;;;8.77;4.93;;;15.50;99.90;;;;;;4942798;28;89456;-33
2023/07/13 02:20:03;;;;;;;7.70;3.75;;;15.50;99.90;;;;;;4940527;28;89509;-33
2023/07/13 02:22:28;;;;;;;9.18;3.45;;;15.60;99.90;;;;;;4941837;28;89672;-38
2023/07/13 02:24:54;;;;;;;5.38;3.58;;;15.60;99.90;;;;;;4943165;28;89652;-33
2023/07/13 02:27:20;;;;;;;8.70;3.85;;;15.50;99.90;;;;;;4941808;28;88292;-41
2023/07/13 02:29:46;;;;;;;10.10;3.92;;;15.60;99.90;;;;;;4942778;28;90758;-34
2023/07/13 02:32:11;;;;;;;8.23;3.83;;;15.60;99.90;;;;;;4942345;28;90501;-35
2023/07/13 02:34:37;;;;;;;7.82;4.57;;;15.50;99.90;;;;;;4941927;28;92273;-33
2023/07/13 02:37:03;;;;;;;7.00;3.95;;;15.50;99.90;;;;;;4944623;28;90125;-32
2023/07/13 02:39:29;;;;;;;12.25;4.72;;;15.50;99.90;;;;;;4941708;28;90614;-32
2023/07/13 02:41:55;;;;;;;13.00;3.65;;;15.50;99.90;;;;;;4943284;28;89749;-34
2023/07/13 02:44:20;;;;;;;8.63;3.58;;;15.50;99.90;;;;;;4942022;28;90755;-36
2023/07/13 02:46:46;;;;;;;7.65;3.78;;;15.40;99.90;;;;;;4943861;28;88689;-35
2023/07/13 02:49:12;;;;;;;4.45;3.67;;;15.40;99.90;;;;;;4942599;28;90376;-32
2023/07/13 02:51:37;;;;;;;9.68;3.85;;;15.40;99.90;;;;;;4942436;28;89693;-32
2023/07/13 02:54:04;;;;;;;5.13;3.80;;;15.50;99.90;;;;;;4941669;28;89497;-37
2023/07/13 02:56:31;;;;;;;14.13;4.18;;;15.40;99.90;;;;;;4941483;28;89731;-36
2023/07/13 02:58:58;;;;;;;11.88;3.65;;;15.40;99.90;;;;;;4941755;28;89150;-32
2023/07/13 03:01:24;;;;;;;5.60;3.63;;;15.40;99.90;;;;;;4941799;28;90729;-36
2023/07/13 03:03:51;;;;;;;10.35;4.28;;;15.40;99.90;;;;;;4941551;28;91268;-34
2023/07/13 03:06:18;;;;;;;9.10;4.57;;;15.40;99.90;;;;;;4941623;28;89364;-32
2023/07/13 03:08:44;;;;;;;5.07;3.70;;;15.40;99.90;;;;;;4941088;28;90623;-38
2023/07/13 03:11:16;;;;;;;11.30;4.40;;;15.40;99.90;;;;;;4940104;28;89725;-37
2023/07/13 03:13:42;;;;;;;11.75;4.03;;;15.40;99.90;;;;;;4942295;28;90433;-34
2023/07/13 03:16:10;;;;;;;12.85;4.15;;;15.40;99.90;;;;;;4941431;28;89555;-36
2023/07/13 03:18:36;;;;;;;14.03;4.57;;;15.40;99.90;;;;;;4939807;28;92291;-34
2023/07/13 03:21:02;;;;;;;6.63;3.85;;;15.40;99.90;;;;;;4941591;28;90442;-36
2023/07/13 03:23:28;;;;;;;8.35;4.20;;;15.40;99.90;;;;;;4941581;28;90723;-32
2023/07/13 03:26:09;;;;;;;10.95;4.63;;;15.40;99.90;;;;;;4942650;28;89487;-43
2023/07/13 03:28:35;;;;;;;13.15;5.43;;;15.40;99.90;;;;;;4942330;28;90033;-37
2023/07/13 03:31:04;;;;;;;11.40;4.47;;;15.40;99.90;;;;;;4941530;28;90434;-33
2023/07/13 03:33:30;;;;;;;18.10;4.25;;;15.40;99.90;;;;;;4941868;28;90091;-33
2023/07/13 03:35:56;;;;;;;5.35;4.55;;;15.40;99.90;;;;;;4941097;28;88937;-36
2023/07/13 03:38:22;;;;;;;9.38;4.97;;;15.50;99.90;;;;;;4941538;28;90903;-39
2023/07/13 03:40:48;;;;;;;8.98;4.18;;;15.50;99.90;;;;;;4940694;28;89815;-35
2023/07/13 03:43:14;;;;;;;8.75;3.80;;;15.50;99.90;;;;;;4941132;28;90346;-34
2023/07/13 03:45:40;;;;;;;7.72;4.20;;;15.50;99.90;;;;;;4940342;28;90181;-32
2023/07/13 03:48:06;;;;;;;8.38;4.78;;;15.50;99.90;;;;;;4940920;28;89741;-39
2023/07/13 03:50:32;;;;;;;10.85;5.07;;;15.50;99.90;;;;;;4939191;28;90198;-33
2023/07/13 03:52:59;;;;;;;12.00;3.65;;;15.50;99.90;;;;;;4940352;28;88730;-34
2023/07/13 03:55:26;;;;;;;13.63;5.57;;;15.50;99.90;;;;;;4947462;28;87921;-38
2023/07/13 03:57:58;;;;;;;7.07;4.13;;;15.50;99.90;;;;;;4945307;28;90052;-35
2023/07/13 04:00:24;;;;;;;12.52;4.38;;;15.50;99.90;;;;;;4939824;28;89876;-38
2023/07/13 04:02:50;;;;;;;10.63;3.67;;;15.50;99.90;;;;;;4940807;28;90336;-40
2023/07/13 04:05:16;;;;;;;15.00;5.35;;;15.60;99.90;;;;;;4940986;28;89462;-35
2023/07/13 04:07:41;;;;;;;14.57;4.95;;;15.60;99.90;;;;;;4940047;28;90532;-38
2023/07/13 04:10:08;;;;;;;7.97;4.22;;;15.60;99.90;;;;;;4939334;28;90331;-38
2023/07/13 04:12:33;;;;;;;18.15;5.40;;;15.50;99.90;;;;;;4939847;28;90371;-32
2023/07/13 04:14:59;;;;;;;12.35;5.13;;;15.60;99.90;;;;;;4940668;28;90267;-40
2023/07/13 04:17:25;;;;;;;8.60;4.93;;;15.60;99.90;;;;;;4940090;28;89710;-32
2023/07/13 04:19:50;;;;;;;12.02;4.53;;;15.60;99.90;;;;;;4940092;28;89914;-35
2023/07/13 04:22:16;;;;;;;11.27;4.95;;;15.60;99.90;;;;;;4942337;28;90000;-36
2023/07/13 04:24:42;;;;;;;7.43;5.43;;;15.60;99.90;;;;;;4941699;28;88970;-39
2023/07/13 04:27:08;;;;;;;10.02;4.30;;;15.60;99.90;;;;;;4943814;28;89927;-38
2023/07/13 04:29:33;;;;;;;9.52;6.25;;;15.50;99.90;;;;;;4942151;28;91495;-32
2023/07/13 04:31:59;;;;;;;8.90;4.88;;;15.50;99.90;;;;;;4943278;28;90663;-36
2023/07/13 04:34:25;;;;;;;13.13;4.40;;;15.40;99.90;;;;;;4942148;28;89961;-34
2023/07/13 04:36:51;;;;;;;8.77;5.70;;;15.50;99.90;;;;;;4944519;28;90288;-33
2023/07/13 04:39:17;;;;;;;9.50;4.63;;;15.40;99.90;;;;;;4946122;28;88846;-44
2023/07/13 04:41:42;;;;;;;10.15;4.80;;;15.40;99.90;;;;;;4945036;28;90467;-35
2023/07/13 04:44:08;;;;;;;8.93;5.63;;;15.40;99.90;;;;;;4946688;28;88991;-35
2023/07/13 04:46:33;;;;;;;14.38;4.82;;;15.40;99.90;;;;;;4944578;28;88408;-33
2023/07/13 04:49:00;;;;;;;9.68;4.85;;;15.50;99.90;;;;;;4946971;28;89520;-37
2023/07/13 04:51:26;;;;;;;5.68;4.57;;;15.40;99.90;;;;;;4941011;28;90072;-35
2023/07/13 04:53:52;;;;;;;8.98;4.90;;;15.40;99.90;;;;;;4947067;28;88958;-37
2023/07/13 04:56:19;;;;;;;13.82;5.40;;;15.40;99.90;;;;;;4945176;28;89998;-39
2023/07/13 04:58:45;;;;;;;8.93;5.03;;;15.40;99.90;;;;;;4950202;28;90608;-33
2023/07/13 05:01:11;;;;;;;12.70;4.22;;;15.40;99.90;;;;;;4949522;28;90566;-33
2023/07/13 05:03:36;;;;;;;7.20;5.00;;;15.40;99.90;;;;;;4951165;28;89833;-43
2023/07/13 05:06:09;;;;;;;10.40;4.45;;;15.40;99.90;;;;;;4949716;28;89281;-33
2023/07/13 05:08:35;;;;;;;11.85;5.25;;;15.40;99.90;;;;;;4945770;28;90760;-39
2023/07/13 05:11:03;;;;;;;9.48;4.97;;;15.40;99.90;;;;;;4941902;28;89535;-32
2023/07/13 05:13:29;;;;;;;14.70;5.40;;;15.60;99.90;;;;;;4951194;28;88613;-33
2023/07/13 05:16:13;;;;;;;9.35;4.93;;;15.90;99.90;;;;;;4945610;28;90214;-34
2023/07/13 05:18:38;;;;;;;11.30;4.88;;;16.20;99.90;;;;;;4909878;28;90485;-37
2023/07/13 05:21:07;;;;;;;14.52;5.50;;;16.40;99.90;;;;;;4912087;28;89903;-37
2023/07/13 05:23:34;;;;;;;9.35;4.20;;;16.60;99.90;;;;;;4901480;28;89124;-37
2023/07/13 05:26:00;;;;;;;9.48;4.93;;;16.80;99.90;;;;;;4901694;28;90790;-40
2023/07/13 05:28:27;;;;;;;9.30;5.15;;;17.00;99.90;;;;;;4900287;28;89755;-36
2023/07/13 05:30:54;;;;;;;12.20;5.30;;;17.10;99.90;;;;;;4901488;28;89073;-34
2023/07/13 05:33:20;;;;;;;9.57;4.65;;;17.30;99.90;;;;;;4901955;28;88510;-38
2023/07/13 05:35:46;;;;;;;15.35;4.88;;;17.60;99.90;;;;;;4901469;28;90446;-38
2023/07/13 05:38:12;;;;;;;8.10;5.22;;;17.70;99.90;;;;;;4901633;28;89380;-35
2023/07/13 05:40:37;;;;;;;9.80;5.43;;;17.50;99.90;;;;;;4902463;28;88993;-40
2023/07/13 05:43:03;;;;;;;12.05;5.75;;;17.80;99.90;;;;;;4901078;28;89462;-36
2023/07/13 05:45:29;;;;;;;7.10;4.90;;;17.90;99.90;;;;;;4901246;28;90151;-34
2023/07/13 05:47:55;;;;;;;6.90;4.53;;;17.90;99.90;;;;;;4901076;28;90961;-37
2023/07/13 05:50:21;;;;;;;9.20;4.93;;;18.00;99.90;;;;;;4901563;28;90818;-42
2023/07/13 05:52:47;;;;;;;9.93;5.18;;;18.20;99.90;;;;;;4901114;28;88192;-39
2023/07/13 05:55:13;;;;;;;11.70;5.50;;;18.40;99.90;;;;;;4931785;28;90289;-34
2023/07/13 05:57:38;;;;;;;7.75;3.60;;;18.40;99.90;;;;;;4901348;28;89748;-34
2023/07/13 06:00:05;;;;;;;5.75;4.13;;;18.50;99.90;;;;;;4901130;28;89894;-41
2023/07/13 06:02:31;;;;;;;10.80;4.68;;;18.70;99.90;;;;;;4899974;28;89631;-35
2023/07/13 06:04:56;;;;;;;5.07;3.90;;;18.60;99.90;;;;;;4901847;28;90664;-34
2023/07/13 06:07:22;;;;;;;11.23;4.57;;;18.60;99.90;;;;;;4900841;28;90565;-35
2023/07/13 06:09:48;;;;;;;9.05;4.40;;;18.90;99.90;;;;;;4901057;28;90525;-38
2023/07/13 06:12:13;;;;;;;8.30;4.78;;;19.10;99.90;;;;;;4900658;28;90034;-34
2023/07/13 06:14:39;;;;;;;11.98;5.30;;;19.10;99.90;;;;;;4901217;28;91474;-44
2023/07/13 06:17:05;;;;;;;11.40;4.30;;;19.10;99.90;;;;;;4901345;28;88563;-34
2023/07/13 06:19:31;;;;;;;13.98;4.53;;;19.20;99.90;;;;;;4901208;28;88700;-39
2023/07/13 06:21:58;;;;;;;8.73;4.30;;;19.30;99.90;;;;;;4901736;28;89604;-37
2023/07/13 06:24:24;;;;;;;8.88;4.38;;;19.50;99.90;;;;;;4900553;28;90526;-34
2023/07/13 06:26:50;;;;;;;15.30;4.57;;;19.50;99.90;;;;;;4900472;28;89610;-41
2023/07/13 06:29:16;;;;;;;12.02;4.10;;;19.40;99.90;;;;;;4901335;28;89761;-36
2023/07/13 06:31:41;;;;;;;12.80;3.85;;;19.70;99.90;;;;;;4900758;28;89309;-40
2023/07/13 06:34:07;;;;;;;7.28;3.83;;;20.20;99.90;;;;;;4900253;28;90264;-36
2023/07/13 06:36:33;;;;;;;8.13;4.38;;;20.10;99.90;;;;;;4900411;28;90661;-34
2023/07/13 06:38:59;;;;;;;9.23;4.00;;;20.50;99.90;;;;;;4900306;28;92364;-40
2023/07/13 06:41:27;;;;;;;10.45;4.72;;;20.70;99.90;;;;;;4902086;28;89093;-34
2023/07/13 06:43:53;;;;;;;11.40;4.72;;;21.00;99.90;;;;;;4899888;28;90576;-36
2023/07/13 06:46:23;;;;;;;10.77;5.32;;;21.00;99.90;;;;;;4900052;28;89755;-37
2023/07/13 06:48:49;;;;;;;6.43;4.13;;;21.00;99.90;;;;;;4900237;28;89214;-35
2023/07/13 06:51:14;;;;;;;10.68;4.20;;;21.30;99.90;;;;;;4901200;28;89959;-36
2023/07/13 06:53:40;;;;;;;10.35;3.83;;;21.30;99.90;;;;;;4901453;28;90134;-35
2023/07/13 06:56:06;;;;;;;9.05;4.28;;;21.70;99.90;;;;;;4900790;28;89720;-39
2023/07/13 06:58:34;;;;;;;5.38;3.90;;;21.80;99.90;;;;;;4900363;28;90493;-37
2023/07/13 07:00:59;;;;;;;7.93;3.67;;;21.70;99.90;;;;;;4899099;28;89016;-39
2023/07/13 07:03:25;;;;;;;5.57;3.17;;;22.00;99.90;;;;;;4900208;28;90247;-35
2023/07/13 07:05:51;;;;;;;10.23;2.83;;;21.80;99.90;;;;;;4901219;28;90627;-38
2023/07/13 07:08:16;;;;;;;8.48;3.88;;;21.80;99.90;;;;;;4899755;28;88789;-35
2023/07/13 07:10:42;;;;;;;4.72;3.72;;;21.50;99.90;;;;;;4901141;28;89706;-34
2023/07/13 07:13:08;;;;;;;10.23;4.35;;;21.10;99.90;;;;;;4900025;28;90047;-34
2023/07/13 07:15:35;;;;;;;9.90;3.83;;;20.50;99.90;;;;;;4900621;28;89647;-38
2023/07/13 07:18:01;;;;;;;6.22;3.22;;;20.20;99.90;;;;;;4900311;28;88823;-39
2023/07/13 07:20:27;;;;;;;5.97;4.50;;;20.30;99.90;;;;;;4898873;28;89106;-39
2023/07/13 07:22:52;;;;;;;11.57;3.90;;;20.10;99.90;;;;;;4900368;28;90224;-38
2023/07/13 07:25:19;;;;;;;7.45;3.88;;;19.90;99.90;;;;;;4899268;28;91986;-38
2023/07/13 07:27:45;;;;;;;12.85;4.15;;;19.80;99.90;;;;;;4900332;28;90321;-37
2023/07/13 07:30:12;;;;;;;11.00;3.95;;;19.70;99.90;;;;;;4899966;28;87957;-38
2023/07/13 07:32:38;;;;;;;8.60;3.83;;;19.70;99.90;;;;;;4898745;28;90936;-40
2023/07/13 07:35:04;;;;;;;10.80;3.47;;;19.90;99.90;;;;;;4899721;28;89770;-37
2023/07/13 07:37:29;;;;;;;6.60;3.20;;;20.00;99.90;;;;;;4898543;28;90187;-38
2023/07/13 07:39:55;;;;;;;9.52;3.92;;;20.10;99.90;;;;;;4899290;28;89971;-43
2023/07/13 07:42:21;;;;;;;6.82;3.72;;;19.90;99.90;;;;;;4899320;28;90219;-33
2023/07/13 07:44:46;;;;;;;10.25;4.10;;;19.80;99.90;;;;;;4898566;28;89335;-36
2023/07/13 07:47:12;;;;;;;9.13;4.03;;;20.00;99.90;;;;;;4899292;28;91700;-40
2023/07/13 07:49:38;;;;;;;8.30;4.93;;;19.90;99.90;;;;;;4899674;28;89802;-38
2023/07/13 07:52:04;;;;;;;6.47;3.90;;;20.00;99.90;;;;;;4899664;28;90566;-37
2023/07/13 07:54:30;;;;;;;6.22;4.05;;;20.10;99.90;;;;;;4899281;28;90992;-34
2023/07/13 07:56:55;;;;;;;6.35;4.55;;;20.00;99.90;;;;;;4899676;28;89310;-36
2023/07/13 07:59:21;;;;;;;4.68;3.83;;;19.90;99.90;;;;;;4899675;28;88319;-38
2023/07/13 08:01:50;;;;;;;8.73;4.22;;;19.80;99.90;;;;;;4926683;23;90907;-36
2023/07/13 08:04:16;;;;;;;8.20;4.65;;;19.80;99.90;;;;;;4879403;28;89707;-32
2023/07/13 08:06:42;;;;;;;7.70;4.32;;;19.90;99.90;;;;;;4880540;28;89443;-39
2023/07/13 08:09:09;;;;;;;9.88;4.50;;;19.80;99.90;;;;;;4881631;28;90430;-32
2023/07/13 08:11:34;;;;;;;10.63;4.85;;;19.90;99.90;;;;;;4879408;28;90425;-37
2023/07/13 08:14:00;;;;;;;11.45;4.63;;;19.60;99.90;;;;;;4879537;28;90839;-36
2023/07/13 08:16:26;;;;;;;12.63;5.00;;;19.60;99.90;;;;;;4878561;28;92395;-36
2023/07/13 08:18:52;;;;;;;13.88;5.55;;;19.90;99.90;;;;;;4880228;28;88094;-37
2023/07/13 08:21:19;;;;;;;6.45;4.57;;;19.70;99.90;;;;;;4878354;28;91045;-35
2023/07/13 08:23:46;;;;;;;6.60;4.80;;;19.70;99.90;;;;;;4873348;28;89644;-38
2023/07/13 08:26:12;;;;;;;6.55;3.80;;;19.60;99.90;;;;;;4872529;28;89388;-39
2023/07/13 08:28:37;;;;;;;10.95;5.38;;;19.70;99.90;;;;;;4879450;28;89340;-35
2023/07/13 08:31:04;;;;;;;10.25;5.15;;;19.90;99.90;;;;;;4879070;28;90632;-35
2023/07/13 08:33:30;;;;;;;11.27;5.67;;;20.00;99.90;;;;;;4879656;28;89467;-42
2023/07/13 08:35:56;;;;;;;11.95;5.07;;;19.90;99.90;;;;;;4879308;28;89802;-37
2023/07/13 08:38:22;;;;;;;11.93;6.38;;;19.80;99.90;;;;;;4871170;28;90043;-39
2023/07/13 08:40:56;;;;;;;9.88;5.25;;;19.60;99.90;;;;;;4878978;28;90303;-37
2023/07/13 08:43:36;;;;;;;12.32;4.63;;;19.70;99.90;;;;;;4878604;28;89924;-37
2023/07/13 08:46:23;;;;;;;10.10;4.65;;;19.90;99.90;;;;;;4879496;28;89522;-34
2023/07/13 08:48:57;;;;;;;9.38;5.50;;;20.10;99.90;;;;;;4879701;28;88436;-36
2023/07/13 08:51:39;;;;;;;14.18;5.40;;;20.50;99.90;;;;;;4878250;28;89727;-33
2023/07/13 08:54:28;;;;;;;9.85;5.70;;;20.80;99.90;;;;;;4877776;28;89797;-37
2023/07/13 08:56:55;;;;;;;10.10;5.78;;;20.80;99.90;;;;;;4879731;28;90212;-36
2023/07/13 08:59:26;;;;;;;8.43;6.50;;;20.50;99.90;;;;;;4879495;28;90010;-36
2023/07/13 09:02:17;;;;;;;10.50;5.85;;;20.00;99.90;;;;;;4881709;28;90283;-35
2023/07/13 09:04:49;;;;;;;20.65;7.63;;;19.90;99.90;;;;;;4868345;28;90603;-36
2023/07/13 09:07:39;;;;;;;7.78;5.68;;;19.50;99.90;;;;;;4882786;28;89174;-39
2023/07/13 09:10:20;;;;;;;8.85;5.70;;;19.50;99.90;;;;;;4880713;28;89182;-37
2023/07/13 09:13:12;;;;;;;6.35;5.75;;;19.10;99.90;;;;;;4877491;28;90909;-40
2023/07/13 09:15:46;;;;;;;9.50;5.75;;;19.10;99.90;;;;;;4876878;28;90148;-36
2023/07/13 09:18:18;;;;;;;12.43;6.10;;;19.10;99.90;;;;;;4880032;28;90284;-35
2023/07/13 09:21:06;;;;;;;6.80;4.75;;;19.20;99.90;;;;;;4873557;28;88825;-43
2023/07/13 09:23:32;;;;;;;6.57;4.93;;;19.20;99.90;;;;;;4868594;28;90362;-42
2023/07/13 09:26:06;;;;;;;9.57;5.47;;;19.10;99.90;;;;;;4877005;28;90302;-42
2023/07/13 09:28:41;;;;;;;6.25;5.43;;;19.00;99.90;;;;;;4872079;28;88914;-36
2023/07/13 09:31:23;;;;;;;8.23;4.90;;;18.90;99.90;;;;;;4879367;28;89336;-34
2023/07/13 09:33:50;;;;;;;4.78;4.28;;;18.90;99.90;;;;;;4879247;28;91551;-35
2023/07/13 09:36:28;;;;;;;6.30;4.67;;;18.50;99.90;;;;;;4878804;28;89332;-34
2023/07/13 09:39:20;;;;;;;5.07;3.60;;;18.30;99.90;;;;;;4878097;28;89005;-38
2023/07/13 09:41:50;;;;;;;3.25;2.63;;;17.80;99.90;;;;;;4874076;28;88685;-39
2023/07/13 09:44:26;;;;;;;10.63;3.97;;;17.70;99.90;;;;;;4868424;28;90834;-42
2023/07/13 09:46:54;;;;;;;4.22;3.50;;;17.30;99.90;;;;;;4881511;28;90407;-36
2023/07/13 09:49:27;;;;;;;6.53;3.75;;;17.20;99.90;;;;;;4883435;28;91443;-37
2023/07/13 09:52:00;;;;;;;8.98;3.25;;;17.00;99.90;;;;;;4881827;28;89042;-36
2023/07/13 09:54:26;;;;;;;3.67;3.38;;;16.70;99.90;;;;;;4882021;28;90640;-38
2023/07/13 09:56:59;;;;;;;3.10;2.78;;;16.70;99.90;;;;;;4882046;28;90064;-35
2023/07/13 09:59:30;;;;;;;3.58;2.92;;;16.50;99.90;;;;;;4864490;28;90034;-34
2023/07/13 10:01:56;;;;;;;4.80;2.40;;;16.40;99.90;;;;;;4876452;28;88334;-39
2023/07/13 10:04:31;;;;;;;6.15;2.72;;;16.40;99.90;;;;;;4882180;28;90673;-35
2023/07/13 10:07:08;;;;;;;2.70;2.50;;;16.40;99.90;;;;;;4881237;28;91091;-35
2023/07/13 10:09:34;;;;;;;5.55;2.15;;;16.30;99.90;;;;;;4882526;28;89414;-36
2023/07/13 10:12:00;;;;;;;5.30;2.63;;;16.40;99.90;;;;;;4876559;28;89285;-44
2023/07/13 10:14:26;;;;;;;1.92;1.83;;;16.70;99.90;;;;;;4874123;28;89110;-38
2023/07/13 10:17:00;;;;;;;6.72;2.72;;;16.80;99.90;;;;;;4863585;28;89280;-36
2023/07/13 10:19:31;;;;;;;2.58;2.20;;;17.20;99.90;;;;;;4866778;28;90252;-36
2023/07/13 10:22:21;;;;;;;2.80;2.50;;;17.20;99.90;;;;;;4863379;28;88571;-42
2023/07/13 10:24:47;;;;;;;3.00;2.63;;;17.40;99.90;;;;;;4864464;28;90327;-45
2023/07/13 10:27:25;;;;;;;2.90;2.70;;;17.80;99.90;;;;;;4863615;28;90784;-37
2023/07/13 10:30:20;;;;;;;2.67;2.47;;;17.90;99.90;;;;;;4877227;28;90165;-38
2023/07/13 10:32:47;;;;;;;4.00;2.47;;;18.30;99.90;;;;;;4881452;28;89528;-34
2023/07/13 10:35:15;;;;;;;3.60;1.80;;;18.20;99.90;;;;;;4880861;28;91736;-34
2023/07/13 10:37:41;;;;;;;;;;;18.00;99.90;;;;;;4869791;28;89640;-38
2023/07/13 10:40:14;;;;;;;3.10;2.90;;;18.10;99.90;;;;;;4874526;28;90378;-38
2023/07/13 10:42:44;;;;;;;4.05;3.00;;;18.30;99.90;;;;;;4882931;28;89114;-41
2023/07/13 10:45:33;;;;;;;2.70;2.50;;;18.60;99.90;;;;;;4874325;28;90256;-34
2023/07/13 10:47:59;;;;;;;5.32;3.65;;;18.80;99.90;;;;;;4879309;28;90723;-42
2023/07/13 10:50:30;;;;;;;5.22;4.55;;;18.80;99.90;;;;;;4870017;28;90462;-42
2023/07/13 10:53:03;;;;;;;3.97;3.50;;;18.80;99.90;;;;;;4872355;28;89473;-35
2023/07/13 10:55:48;;;;;;;5.53;3.70;;;18.80;99.90;;;;;;4862045;28;91112;-39
2023/07/13 10:58:34;;;;;;;5.38;4.05;;;19.00;99.90;;;;;;4873925;28;89644;-34
2023/07/13 11:01:06;;;;;;;5.80;4.13;;;19.10;99.90;;;;;;4869415;28;89729;-40
2023/07/13 11:03:53;;;;;;;5.18;4.32;;;19.00;99.90;;;;;;4879851;28;88921;-36
2023/07/13 11:06:22;;;;;;;5.97;5.43;;;19.10;99.90;;;;;;4872891;28;89663;-43
2023/07/13 11:08:48;;;;;;;6.50;4.65;;;19.20;99.90;;;;;;4871569;28;93450;-38
2023/07/13 11:11:29;;;;;;;6.55;5.10;;;19.50;99.90;;;;;;4875995;28;89460;-36
2023/07/13 11:13:58;;;;;;;7.97;5.35;;;19.60;99.90;;;;;;4875263;28;90116;-33
2023/07/13 11:16:23;;;;;;;10.88;5.13;;;19.70;99.90;;;;;;4871339;28;89158;-41
2023/07/13 11:19:05;;;;;;;5.82;5.32;;;19.90;99.90;;;;;;4879882;28;90349;-40
2023/07/13 11:21:31;;;;;;;8.32;5.60;;;20.00;99.90;;;;;;4881003;28;90470;-38
2023/07/13 11:24:16;;;;;;;6.40;5.13;;;19.70;99.90;;;;;;4880817;28;88525;-37
2023/07/13 11:26:50;;;;;;;5.45;4.88;;;19.80;99.90;;;;;;4879965;28;90814;-41
2023/07/13 11:29:22;;;;;;;5.72;4.93;;;19.80;99.90;;;;;;4876074;28;89462;-37
2023/07/13 11:31:57;;;;;;;10.07;4.85;;;19.80;99.90;;;;;;4880196;28;89244;-41
2023/07/13 11:34:36;;;;;;;8.70;5.25;;;19.80;99.90;;;;;;4880777;28;89680;-39
2023/07/13 11:37:02;;;;;;;7.15;5.32;;;19.60;99.90;;;;;;4861470;28;92130;-39
2023/07/13 11:39:30;;;;;;;8.40;7.05;;;19.50;99.90;;;;;;4860388;28;90729;-36
2023/07/13 11:42:11;;;;;;;7.25;6.13;;;19.30;99.90;;;;;;4861940;28;90556;-38
2023/07/13 11:44:50;;;;;;;7.78;5.53;;;18.60;99.90;;;;;;4874292;28;89475;-37
2023/07/13 11:47:22;;;;;;;6.35;4.90;;;18.20;99.90;;;;;;4862236;28;91839;-39
2023/07/13 11:49:56;;;;;;;5.30;4.80;;;18.00;99.90;;;;;;4874269;28;90153;-38
2023/07/13 11:52:33;;;;;;;4.80;4.38;;;17.90;99.90;;;;;;4863123;28;89012;-44
2023/07/13 11:55:01;;;;;;;5.63;4.43;;;17.90;99.90;;;;;;4873669;28;89354;-40
2023/07/13 11:57:33;;;;;;;4.47;4.07;;;17.90;99.90;;;;;;4865046;28;90120;-39
2023/07/13 12:00:06;;;;;;;4.75;4.35;;;17.80;99.90;;;;;;4870266;28;89708;-39
2023/07/13 12:02:41;;;;;;;4.07;3.67;;;17.90;99.90;;;;;;4879013;28;89477;-34
2023/07/13 12:05:12;;;;;;;4.10;3.70;;;17.90;99.90;;;;;;4879636;28;90028;-42
2023/07/13 12:07:38;;;;;;;3.90;3.50;;;18.00;99.90;;;;;;4878304;28;90417;-43
2023/07/13 12:10:19;;;;;;;4.63;4.22;;;18.20;99.90;;;;;;4879425;28;89750;-35
2023/07/13 12:12:49;;;;;;;3.80;3.50;;;18.50;99.90;;;;;;4868886;28;90248;-42
2023/07/13 12:15:15;;;;;;;4.15;3.47;;;18.60;99.90;;;;;;4873443;28;89859;-37
2023/07/13 12:17:41;;;;;;;6.25;4.10;;;18.50;99.90;;;;;;4860978;28;91030;-41
2023/07/13 12:20:38;;;;;;;8.73;5.95;;;18.60;99.90;;;;;;4864174;28;89581;-40
2023/07/13 12:23:25;;;;;;;5.43;4.93;;;18.80;99.90;;;;;;4861088;28;89344;-37
2023/07/13 12:25:52;;;;;;;;;;;18.80;99.90;;;;;;4860823;28;92158;-37
2023/07/13 12:28:21;;;;;;;10.50;5.32;;;18.80;99.90;;;;;;4869920;28;91091;-41
2023/07/13 12:30:49;;;;;;;5.93;4.88;;;18.70;99.90;;;;;;4871390;28;90382;-37
2023/07/13 12:33:16;;;;;;;9.83;5.57;;;18.70;99.90;;;;;;4862349;28;90423;-40
2023/07/13 12:35:47;;;;;;;8.05;4.97;;;18.90;99.90;;;;;;4861895;28;89602;-42
2023/07/13 12:38:15;;;;;;;7.30;5.35;;;19.20;99.90;;;;;;4861582;28;90671;-35
2023/07/13 12:40:41;;;;;;;5.90;4.47;;;19.20;99.90;;;;;;4870372;28;90484;-39
2023/07/13 12:43:14;;;;;;;5.63;4.93;;;19.20;99.90;;;;;;4873425;28;89018;-40
2023/07/13 12:45:59;;;;;;;4.93;4.45;;;19.10;99.90;;;;;;4875780;28;89057;-41
2023/07/13 12:48:25;;;;;;;7.20;4.80;;;19.30;99.90;;;;;;4867722;28;90622;-34
2023/07/13 12:50:54;;;;;;;5.13;4.57;;;19.50;99.90;;;;;;4873976;28;90197;-41
2023/07/13 12:53:30;;;;;;;5.72;5.22;;;19.60;99.90;;;;;;4875710;28;90594;-39
2023/07/13 12:55:59;;;;;;;9.00;5.28;;;19.70;99.90;;;;;;4872686;28;89971;-35